createdAt,value
2022-09-23T00:04:56.272Z,100
2022-09-23T00:14:57.340Z,100
2022-09-23T00:24:57.651Z,100
2022-09-23T00:34:58.357Z,100
2022-09-23T00:44:59.431Z,100
2022-09-23T00:55:00.466Z,100
2022-09-23T01:15:01.000Z,100
2022-09-23T01:25:01.809Z,100
2022-09-23T01:35:02.518Z,100
2022-09-23T01:45:03.596Z,100
2022-09-23T01:55:04.297Z,100
2022-09-23T02:05:04.602Z,100
2022-09-23T02:15:04.911Z,100
2022-09-23T02:35:06.047Z,100
2022-09-23T02:45:06.453Z,100
2022-09-23T02:55:07.219Z,100
2022-09-23T03:05:07.953Z,100
2022-09-23T03:15:08.221Z,100
2022-09-23T03:25:08.903Z,100
2022-09-23T03:35:09.235Z,100
2022-09-23T03:45:10.079Z,100
2022-09-23T03:55:11.029Z,100
2022-09-23T04:15:12.513Z,100
2022-09-23T04:25:13.587Z,100
2022-09-23T04:35:13.982Z,100
2022-09-23T04:45:14.980Z,100
2022-09-23T04:55:15.595Z,100
2022-09-23T05:05:16.487Z,100
2022-09-23T05:15:17.013Z,100
2022-09-23T05:25:17.223Z,100
2022-09-23T05:35:18.167Z,100
2022-09-23T05:45:19.150Z,100
2022-09-23T05:55:19.465Z,100
2022-09-23T06:05:20.019Z,100
2022-09-23T06:15:20.942Z,100
2022-09-23T06:25:21.306Z,100
2022-09-23T06:35:25.875Z,100
2022-09-23T06:45:22.898Z,100
2022-09-23T06:55:23.105Z,100
2022-09-23T07:05:23.573Z,100
2022-09-23T07:15:24.448Z,100
2022-09-23T07:25:25.057Z,100
2022-09-23T07:35:25.355Z,100
2022-09-23T07:45:25.606Z,100
2022-09-23T07:55:26.509Z,99
2022-09-23T08:05:27.574Z,96
2022-09-23T08:15:28.258Z,94
2022-09-23T08:25:31.271Z,91
2022-09-23T08:35:29.823Z,90
2022-09-23T08:45:30.721Z,89
2022-09-23T08:55:31.198Z,88
2022-09-23T09:05:31.876Z,86
2022-09-23T09:15:32.659Z,85
2022-09-23T09:25:34.153Z,83
2022-09-23T09:35:33.777Z,81
2022-09-23T09:45:34.541Z,80
2022-09-23T09:55:34.609Z,77
2022-09-23T09:55:58.843Z,77
2022-09-23T10:05:40.444Z,76
2022-09-23T10:15:44.427Z,73
2022-09-23T10:25:41.548Z,75
2022-09-23T10:35:41.706Z,75
2022-09-23T10:45:43.198Z,73
2022-09-23T10:55:42.904Z,70
2022-09-23T11:05:43.604Z,68
2022-09-23T11:25:45.074Z,67
2022-09-23T11:35:45.437Z,67
2022-09-23T11:45:45.998Z,64
2022-09-23T12:05:47.000Z,63
2022-09-23T12:15:47.355Z,62
2022-09-23T12:25:48.434Z,62
2022-09-23T12:35:48.746Z,62
2022-09-23T12:45:49.783Z,64
2022-09-23T12:55:49.397Z,64
2022-09-23T13:05:49.596Z,62
2022-09-23T13:15:50.641Z,58
2022-09-23T13:35:52.158Z,60
2022-09-23T13:45:53.006Z,60
2022-09-23T13:55:53.545Z,60
2022-09-23T14:05:54.586Z,60
2022-09-23T14:15:55.646Z,59
2022-09-23T14:25:56.010Z,60
2022-09-23T14:35:56.372Z,60
2022-09-23T14:55:57.489Z,61
2022-09-23T15:15:58.801Z,62
2022-09-23T15:25:59.484Z,61
2022-09-23T15:36:00.380Z,62
2022-09-23T15:46:00.554Z,63
2022-09-23T15:56:01.322Z,64
2022-09-23T16:16:02.684Z,66
2022-09-23T16:26:02.999Z,67
2022-09-23T16:36:03.259Z,68
2022-09-23T16:46:03.637Z,69
2022-09-23T16:56:04.145Z,70
2022-09-23T17:06:07.889Z,71
2022-09-23T17:16:05.236Z,73
2022-09-23T17:26:06.233Z,73
2022-09-23T17:46:07.488Z,77
2022-09-23T17:56:07.843Z,79
2022-09-23T18:06:08.174Z,79
2022-09-23T18:16:08.696Z,80
2022-09-23T18:26:08.887Z,81
2022-09-23T18:36:09.961Z,81
2022-09-23T18:46:10.921Z,82
2022-09-23T18:56:11.295Z,83
2022-09-23T19:06:12.257Z,83
2022-09-23T19:16:12.987Z,84
2022-09-23T19:26:13.218Z,84
2022-09-23T19:36:14.172Z,85
2022-09-23T19:46:14.366Z,85
2022-09-23T19:56:14.929Z,86
2022-09-23T20:16:16.418Z,87
2022-09-23T20:36:17.850Z,88
2022-09-23T20:56:18.922Z,89
2022-09-23T21:46:21.289Z,92
2022-09-23T21:56:21.435Z,93
2022-09-23T22:06:21.773Z,93
2022-09-23T22:36:23.352Z,95
2022-09-23T22:46:24.487Z,96
2022-09-23T22:56:24.721Z,96
2022-09-23T23:06:25.571Z,96
2022-09-23T23:16:26.076Z,97
2022-09-23T23:26:26.716Z,97
2022-09-23T23:36:27.271Z,98
2022-09-23T23:46:27.951Z,98
2022-09-23T23:56:27.950Z,98
